createdAt,value
2022-10-01T00:02:11.804Z,38.69
2022-10-01T00:04:39.970Z,38.53
2022-10-01T00:07:10.969Z,38.69
2022-10-01T00:09:39.355Z,38.62
2022-10-01T00:12:09.062Z,38.47
2022-10-01T00:14:39.473Z,38.65
2022-10-01T00:17:07.409Z,38.72
2022-10-01T00:19:35.408Z,38.79
2022-10-01T00:22:03.401Z,38.62
2022-10-01T00:24:31.312Z,38.93
2022-10-01T00:27:00.532Z,38.62
2022-10-01T00:29:29.782Z,38.68
2022-10-01T00:31:58.041Z,38.82
2022-10-01T00:34:26.906Z,38.84
2022-10-01T00:36:54.822Z,39.02
2022-10-01T00:39:23.670Z,38.60
2022-10-01T00:41:52.645Z,39.07
2022-10-01T00:44:36.347Z,38.80
2022-10-01T00:47:10.554Z,38.64
2022-10-01T00:49:40.987Z,38.78
2022-10-01T00:52:13.867Z,38.80
2022-10-01T00:54:45.825Z,38.66
2022-10-01T00:57:18.088Z,38.80
2022-10-01T00:59:48.714Z,39.06
2022-10-01T01:02:16.802Z,38.74
2022-10-01T01:04:44.891Z,38.89
2022-10-01T01:07:13.777Z,38.92
2022-10-01T01:09:45.899Z,38.59
2022-10-01T01:12:34.691Z,38.68
2022-10-01T01:15:15.185Z,38.76
2022-10-01T01:17:54.541Z,38.67
2022-10-01T01:20:44.113Z,38.80
2022-10-01T01:23:27.224Z,39.06
2022-10-01T01:26:03.569Z,38.73
2022-10-01T01:28:36.044Z,38.56
2022-10-01T01:31:08.618Z,38.65
2022-10-01T01:33:40.023Z,38.64
2022-10-01T01:36:12.313Z,38.42
2022-10-01T01:38:46.335Z,38.59
2022-10-01T01:41:16.281Z,38.68
2022-10-01T01:43:48.246Z,38.87
2022-10-01T01:46:17.893Z,38.78
2022-10-01T01:48:49.217Z,38.46
2022-10-01T01:51:24.276Z,38.92
2022-10-01T01:53:52.433Z,39.00
2022-10-01T01:56:20.429Z,38.93
2022-10-01T01:58:49.749Z,38.83
2022-10-01T02:01:39.400Z,38.50
2022-10-01T02:04:11.832Z,38.91
2022-10-01T02:06:57.297Z,38.89
2022-10-01T02:09:31.130Z,39.10
2022-10-01T02:12:10.198Z,38.68
2022-10-01T02:14:49.316Z,38.94
2022-10-01T02:17:23.745Z,38.82
2022-10-01T02:19:57.703Z,39.00
2022-10-01T02:22:33.309Z,39.21
2022-10-01T02:25:05.240Z,38.85
2022-10-01T02:27:39.491Z,38.79
2022-10-01T02:30:10.907Z,39.23
2022-10-01T02:32:41.068Z,39.09
2022-10-01T02:35:12.443Z,38.97
2022-10-01T02:37:44.338Z,39.11
2022-10-01T02:40:16.206Z,38.96
2022-10-01T02:42:48.152Z,38.92
2022-10-01T02:45:22.795Z,38.79
2022-10-01T02:47:55.751Z,39.20
2022-10-01T02:50:25.828Z,38.90
2022-10-01T02:52:59.933Z,39.30
2022-10-01T02:55:31.906Z,39.09
2022-10-01T02:57:58.885Z,39.28
2022-10-01T03:00:29.404Z,39.07
2022-10-01T03:02:57.523Z,39.01
2022-10-01T03:05:26.115Z,39.31
2022-10-01T03:07:54.121Z,39.06
2022-10-01T03:10:22.459Z,39.21
2022-10-01T03:12:51.025Z,39.32
2022-10-01T03:15:20.342Z,38.95
2022-10-01T03:17:52.049Z,38.79
2022-10-01T03:20:20.037Z,38.98
2022-10-01T03:22:48.753Z,38.98
2022-10-01T03:25:17.123Z,39.13
2022-10-01T03:27:46.476Z,38.83
2022-10-01T03:30:14.940Z,38.82
2022-10-01T03:32:42.810Z,38.80
2022-10-01T03:35:12.279Z,39.18
2022-10-01T03:37:40.135Z,38.95
2022-10-01T03:40:09.054Z,38.71
2022-10-01T03:42:36.918Z,38.98
2022-10-01T03:45:05.413Z,38.92
2022-10-01T03:47:33.289Z,38.65
2022-10-01T03:50:01.157Z,38.68
2022-10-01T03:52:30.409Z,38.84
2022-10-01T03:54:58.261Z,39.02
2022-10-01T03:57:26.142Z,39.15
2022-10-01T03:59:53.992Z,39.07
2022-10-01T04:02:22.049Z,38.79
2022-10-01T04:04:50.019Z,39.04
2022-10-01T04:07:17.898Z,38.79
2022-10-01T04:09:47.133Z,39.14
2022-10-01T04:12:14.968Z,38.73
2022-10-01T04:14:42.953Z,38.79
2022-10-01T04:17:10.824Z,39.14
2022-10-01T04:19:38.872Z,38.98
2022-10-01T04:22:06.766Z,38.92
2022-10-01T04:24:34.652Z,38.71
2022-10-01T04:27:03.921Z,38.96
2022-10-01T04:29:31.793Z,38.69
2022-10-01T04:31:59.667Z,38.54
2022-10-01T04:34:47.625Z,38.84
2022-10-01T04:37:15.628Z,38.69
2022-10-01T04:39:43.483Z,38.58
2022-10-01T04:42:13.516Z,39.08
2022-10-01T04:44:41.650Z,38.83
2022-10-01T04:47:10.042Z,39.27
2022-10-01T04:49:38.017Z,38.84
2022-10-01T04:52:06.337Z,38.72
2022-10-01T04:54:34.211Z,39.24
2022-10-01T04:57:02.111Z,38.83
2022-10-01T04:59:31.969Z,38.74
2022-10-01T05:02:00.050Z,39.05
2022-10-01T05:04:28.337Z,38.55
2022-10-01T05:06:56.352Z,38.86
2022-10-01T05:09:24.321Z,38.97
2022-10-01T05:11:52.632Z,38.58
2022-10-01T05:14:21.313Z,38.71
2022-10-01T05:16:50.577Z,38.37
2022-10-01T05:19:18.448Z,38.75
2022-10-01T05:21:46.364Z,38.66
2022-10-01T05:24:15.569Z,38.71
2022-10-01T05:26:43.450Z,38.74
2022-10-01T05:29:11.330Z,38.24
2022-10-01T05:31:42.016Z,38.39
2022-10-01T05:34:11.467Z,38.50
2022-10-01T05:36:39.396Z,38.40
2022-10-01T05:39:07.368Z,38.51
2022-10-01T05:41:35.430Z,38.32
2022-10-01T05:44:04.044Z,38.53
2022-10-01T05:46:33.105Z,38.48
2022-10-01T05:49:01.092Z,38.28
2022-10-01T05:51:30.396Z,38.16
2022-10-01T05:54:01.229Z,38.29
2022-10-01T05:56:29.129Z,38.77
2022-10-01T05:58:57.481Z,38.44
2022-10-01T06:01:25.452Z,38.74
2022-10-01T06:03:54.105Z,38.45
2022-10-01T06:06:23.267Z,38.43
2022-10-01T06:08:52.592Z,38.42
2022-10-01T06:11:22.582Z,38.86
2022-10-01T06:13:50.955Z,38.86
2022-10-01T06:16:19.287Z,38.68
2022-10-01T06:18:48.773Z,39.04
2022-10-01T06:21:16.706Z,38.89
2022-10-01T06:23:44.972Z,39.25
2022-10-01T06:26:14.251Z,39.27
2022-10-01T06:28:42.092Z,38.97
2022-10-01T06:31:10.331Z,39.22
2022-10-01T06:33:38.248Z,39.02
2022-10-01T06:36:06.277Z,38.94
2022-10-01T06:38:34.247Z,39.06
2022-10-01T06:41:03.988Z,38.99
2022-10-01T06:43:34.432Z,39.45
2022-10-01T06:46:03.868Z,39.63
2022-10-01T06:48:32.960Z,39.32
2022-10-01T06:51:01.034Z,39.76
2022-10-01T06:53:29.576Z,39.89
2022-10-01T06:55:57.543Z,39.59
2022-10-01T06:58:27.309Z,39.75
2022-10-01T07:01:01.542Z,40.00
2022-10-01T07:03:31.154Z,39.78
2022-10-01T07:06:03.909Z,39.77
2022-10-01T07:08:33.202Z,40.09
2022-10-01T07:11:03.490Z,39.66
2022-10-01T07:13:31.745Z,39.89
2022-10-01T07:16:03.277Z,39.86
2022-10-01T07:18:31.200Z,40.22
2022-10-01T07:20:59.129Z,40.09
2022-10-01T07:23:27.049Z,39.79
2022-10-01T07:25:55.220Z,40.28
2022-10-01T07:28:25.730Z,40.35
2022-10-01T07:31:01.833Z,40.32
2022-10-01T07:33:30.150Z,40.12
2022-10-01T07:36:01.480Z,40.24
2022-10-01T07:38:29.422Z,40.33
2022-10-01T07:40:58.989Z,40.57
2022-10-01T07:43:26.908Z,40.80
2022-10-01T07:45:58.036Z,40.62
2022-10-01T07:48:27.933Z,40.92
2022-10-01T07:50:57.808Z,40.65
2022-10-01T07:53:25.993Z,40.81
2022-10-01T07:55:53.856Z,40.92
2022-10-01T07:58:24.096Z,41.21
2022-10-01T08:00:56.042Z,41.19
2022-10-01T08:03:24.227Z,40.98
2022-10-01T08:05:54.661Z,41.40
2022-10-01T08:08:22.647Z,41.53
2022-10-01T08:10:50.669Z,41.17
2022-10-01T08:13:19.019Z,41.42
2022-10-01T08:15:50.022Z,41.61
2022-10-01T08:18:17.913Z,41.30
2022-10-01T08:20:45.912Z,41.64
2022-10-01T08:23:17.320Z,41.42
2022-10-01T08:25:47.935Z,41.24
2022-10-01T08:28:16.394Z,41.23
2022-10-01T08:30:44.361Z,41.05
2022-10-01T08:33:14.301Z,41.30
2022-10-01T08:35:43.589Z,41.55
2022-10-01T08:38:13.290Z,41.44
2022-10-01T08:40:46.599Z,41.08
2022-10-01T08:43:29.922Z,41.41
2022-10-01T08:46:01.011Z,41.40
2022-10-01T08:48:50.032Z,41.07
2022-10-01T08:51:26.693Z,41.35
2022-10-01T08:53:59.186Z,41.57
2022-10-01T08:56:31.950Z,41.26
2022-10-01T08:59:03.700Z,41.12
2022-10-01T09:01:32.947Z,41.45
2022-10-01T09:04:01.425Z,41.48
2022-10-01T09:06:30.183Z,41.30
2022-10-01T09:09:11.231Z,41.37
2022-10-01T09:11:52.653Z,41.46
2022-10-01T09:14:31.843Z,41.32
2022-10-01T09:17:10.866Z,41.41
2022-10-01T09:19:54.478Z,41.29
2022-10-01T09:22:32.794Z,41.67
2022-10-01T09:25:08.132Z,41.48
2022-10-01T09:27:39.512Z,41.26
2022-10-01T09:30:12.852Z,41.38
2022-10-01T09:32:45.827Z,41.55
2022-10-01T09:35:26.801Z,41.55
2022-10-01T09:37:58.355Z,41.26
2022-10-01T09:40:35.560Z,41.13
2022-10-01T09:43:08.152Z,40.94
2022-10-01T09:45:38.139Z,41.11
2022-10-01T09:48:18.229Z,40.85
2022-10-01T09:50:58.212Z,41.02
2022-10-01T09:53:33.819Z,40.99
2022-10-01T09:56:09.561Z,41.01
2022-10-01T09:58:42.124Z,41.25
2022-10-01T10:01:21.976Z,41.11
2022-10-01T10:03:57.938Z,40.97
2022-10-01T10:06:29.599Z,41.12
2022-10-01T10:08:59.620Z,40.98
2022-10-01T10:11:29.782Z,40.98
2022-10-01T10:14:01.217Z,41.03
2022-10-01T10:16:32.845Z,40.91
2022-10-01T10:19:04.847Z,41.35
2022-10-01T10:21:35.115Z,41.58
2022-10-01T10:24:05.271Z,41.62
2022-10-01T10:26:35.324Z,41.89
2022-10-01T10:29:07.277Z,42.17
2022-10-01T10:31:42.005Z,42.37
2022-10-01T10:34:17.421Z,42.27
2022-10-01T10:36:47.349Z,42.09
2022-10-01T10:39:22.797Z,42.62
2022-10-01T10:41:52.305Z,43.41
2022-10-01T10:44:25.148Z,43.53
2022-10-01T10:46:55.046Z,43.62
2022-10-01T10:49:26.310Z,43.39
2022-10-01T10:51:55.481Z,43.09
2022-10-01T10:54:26.842Z,43.19
2022-10-01T10:57:02.445Z,43.14
2022-10-01T10:59:34.138Z,42.97
2022-10-01T11:02:05.391Z,42.73
2022-10-01T11:04:42.747Z,42.63
2022-10-01T11:07:13.376Z,42.39
2022-10-01T11:10:12.062Z,42.07
2022-10-01T11:13:02.250Z,41.92
2022-10-01T11:15:43.297Z,41.73
2022-10-01T11:18:26.056Z,41.72
2022-10-01T11:21:08.773Z,41.67
2022-10-01T11:24:02.921Z,41.37
2022-10-01T11:26:39.058Z,41.46
2022-10-01T11:29:19.546Z,41.38
2022-10-01T11:31:58.992Z,41.34
2022-10-01T11:34:50.281Z,41.15
2022-10-01T11:37:35.187Z,41.30
2022-10-01T11:40:14.220Z,41.28
2022-10-01T11:42:45.028Z,40.71
2022-10-01T11:45:19.529Z,40.31
2022-10-01T11:47:52.742Z,39.87
2022-10-01T11:50:25.249Z,39.57
2022-10-01T11:52:58.914Z,39.59
2022-10-01T11:55:50.181Z,39.05
2022-10-01T11:58:48.074Z,39.23
2022-10-01T12:01:25.030Z,39.05
2022-10-01T12:04:04.418Z,38.80
2022-10-01T12:06:38.723Z,38.71
2022-10-01T12:09:14.117Z,38.60
2022-10-01T12:11:49.361Z,38.41
2022-10-01T12:14:21.213Z,38.45
2022-10-01T12:16:53.423Z,38.49
2022-10-01T12:19:26.186Z,38.57
2022-10-01T12:22:00.647Z,39.07
2022-10-01T12:24:31.871Z,39.30
2022-10-01T12:27:15.412Z,39.36
2022-10-01T12:29:51.834Z,39.87
2022-10-01T12:32:31.879Z,39.83
2022-10-01T12:35:14.008Z,39.65
2022-10-01T12:38:00.882Z,40.14
2022-10-01T12:40:38.341Z,39.68
2022-10-01T12:43:29.895Z,39.67
2022-10-01T12:46:04.515Z,40.03
2022-10-01T12:48:38.829Z,39.97
2022-10-01T12:51:28.229Z,40.02
2022-10-01T12:54:12.710Z,40.26
2022-10-01T12:56:47.386Z,40.23
2022-10-01T12:59:52.379Z,39.98
2022-10-01T13:02:35.848Z,40.33
2022-10-01T13:05:20.165Z,40.41
2022-10-01T13:08:01.985Z,40.13
2022-10-01T13:10:47.262Z,39.72
2022-10-01T13:13:19.026Z,39.45
2022-10-01T13:15:50.161Z,39.06
2022-10-01T13:18:30.007Z,39.39
2022-10-01T13:21:07.447Z,38.96
2022-10-01T13:23:44.965Z,39.04
2022-10-01T13:26:18.349Z,38.83
2022-10-01T13:29:21.645Z,38.92
2022-10-01T13:31:56.890Z,38.87
2022-10-01T13:34:39.426Z,38.98
2022-10-01T13:37:14.625Z,38.87
2022-10-01T13:39:44.453Z,38.75
2022-10-01T13:42:22.468Z,38.55
2022-10-01T13:44:56.587Z,38.25
2022-10-01T13:47:26.134Z,38.29
2022-10-01T13:49:57.136Z,38.16
2022-10-01T13:52:25.291Z,38.17
2022-10-01T13:54:57.118Z,38.08
2022-10-01T13:57:35.298Z,37.99
2022-10-01T14:00:21.225Z,37.75
2022-10-01T14:03:02.218Z,37.82
2022-10-01T14:05:35.972Z,37.88
2022-10-01T14:08:17.028Z,37.49
2022-10-01T14:11:13.526Z,37.68
2022-10-01T14:14:05.480Z,37.76
2022-10-01T14:16:38.588Z,37.97
2022-10-01T14:19:06.489Z,37.69
2022-10-01T14:21:47.055Z,38.03
2022-10-01T14:24:26.024Z,37.79
2022-10-01T14:26:58.732Z,38.04
2022-10-01T14:29:41.885Z,37.84
2022-10-01T14:32:23.363Z,38.01
2022-10-01T14:35:19.338Z,37.93
2022-10-01T14:37:47.708Z,38.18
2022-10-01T14:40:19.348Z,38.25
2022-10-01T14:42:59.922Z,38.14
2022-10-01T14:45:28.682Z,38.17
2022-10-01T14:48:03.267Z,38.53
2022-10-01T14:50:33.597Z,38.34
2022-10-01T14:53:01.658Z,38.45
2022-10-01T14:55:30.677Z,38.67
2022-10-01T14:58:00.056Z,38.52
2022-10-01T15:00:30.630Z,38.41
2022-10-01T15:03:10.129Z,38.79
2022-10-01T15:05:38.576Z,38.52
2022-10-01T15:08:13.411Z,38.50
2022-10-01T15:10:42.645Z,38.89
2022-10-01T15:13:18.747Z,38.53
2022-10-01T15:15:46.854Z,38.73
2022-10-01T15:18:17.823Z,38.63
2022-10-01T15:20:54.490Z,38.74
2022-10-01T15:23:23.724Z,38.69
2022-10-01T15:25:52.125Z,38.50
2022-10-01T15:28:32.017Z,38.61
2022-10-01T15:31:02.263Z,38.71
2022-10-01T15:33:31.957Z,38.51
2022-10-01T15:36:02.601Z,38.85
2022-10-01T15:38:32.588Z,38.84
2022-10-01T15:41:26.770Z,38.77
2022-10-01T15:43:52.132Z,38.83
2022-10-01T15:46:29.319Z,39.06
2022-10-01T15:49:20.655Z,39.11
2022-10-01T15:52:11.741Z,39.26
2022-10-01T15:54:42.897Z,39.34
2022-10-01T15:57:16.868Z,39.57
2022-10-01T15:59:47.193Z,39.60
2022-10-01T16:02:21.043Z,39.70
2022-10-01T16:04:49.326Z,39.79
2022-10-01T16:07:22.661Z,39.82
2022-10-01T16:09:56.920Z,39.97
2022-10-01T16:12:27.445Z,40.03
2022-10-01T16:15:00.626Z,40.10
2022-10-01T16:17:38.131Z,40.19
2022-10-01T16:20:35.824Z,40.66
2022-10-01T16:23:41.615Z,40.50
2022-10-01T16:26:33.507Z,40.79
2022-10-01T16:29:03.854Z,41.03
2022-10-01T16:31:33.923Z,41.02
2022-10-01T16:34:01.800Z,40.95
2022-10-01T16:36:29.791Z,40.93
2022-10-01T16:38:57.956Z,40.96
2022-10-01T16:41:27.962Z,41.38
2022-10-01T16:43:59.214Z,41.39
2022-10-01T16:46:27.369Z,41.52
2022-10-01T16:48:56.736Z,41.37
2022-10-01T16:51:24.673Z,41.53
2022-10-01T16:53:54.509Z,41.60
2022-10-01T16:56:26.899Z,41.82
2022-10-01T16:58:55.157Z,41.95
2022-10-01T17:01:23.207Z,41.71
2022-10-01T17:03:51.101Z,41.61
2022-10-01T17:06:20.476Z,41.76
2022-10-01T17:08:48.313Z,42.14
2022-10-01T17:11:16.359Z,42.05
2022-10-01T17:13:44.277Z,41.93
2022-10-01T17:16:12.329Z,41.91
2022-10-01T17:18:40.293Z,41.59
2022-10-01T17:21:10.250Z,41.64
2022-10-01T17:23:39.473Z,41.53
2022-10-01T17:26:07.700Z,41.90
2022-10-01T17:28:36.395Z,41.87
2022-10-01T17:31:07.613Z,41.86
2022-10-01T17:33:35.605Z,41.80
2022-10-01T17:36:07.427Z,42.00
2022-10-01T17:38:35.618Z,41.73
2022-10-01T17:41:05.315Z,41.73
2022-10-01T17:43:33.234Z,42.04
2022-10-01T17:46:02.442Z,41.98
2022-10-01T17:48:30.479Z,41.64
2022-10-01T17:51:03.481Z,41.76
2022-10-01T17:53:38.211Z,41.55
2022-10-01T17:56:13.520Z,41.68
2022-10-01T17:58:45.040Z,41.64
2022-10-01T18:01:15.941Z,41.72
2022-10-01T18:03:44.057Z,41.76
2022-10-01T18:06:15.354Z,41.82
2022-10-01T18:08:58.696Z,41.99
2022-10-01T18:11:29.585Z,42.19
2022-10-01T18:13:57.927Z,42.17
2022-10-01T18:16:26.894Z,42.25
2022-10-01T18:21:48.093Z,42.23
2022-10-01T18:24:17.055Z,42.34
2022-10-01T18:26:46.969Z,42.38
2022-10-01T18:29:19.785Z,42.16
2022-10-01T18:31:51.662Z,42.57
2022-10-01T18:34:26.065Z,42.36
2022-10-01T18:36:59.391Z,42.29
2022-10-01T18:39:32.694Z,42.76
2022-10-01T18:42:10.988Z,42.78
2022-10-01T18:44:39.013Z,42.71
2022-10-01T18:47:19.221Z,42.78
2022-10-01T18:50:17.218Z,43.03
2022-10-01T18:52:54.136Z,43.05
2022-10-01T18:56:04.384Z,42.79
2022-10-01T18:59:05.837Z,42.51
2022-10-01T19:01:50.330Z,42.96
2022-10-01T19:04:34.641Z,42.53
2022-10-01T19:07:15.701Z,42.79
2022-10-01T19:09:55.819Z,42.52
2022-10-01T19:12:38.711Z,42.48
2022-10-01T19:15:19.509Z,42.42
2022-10-01T19:17:58.448Z,42.50
2022-10-01T19:20:50.119Z,42.27
2022-10-01T19:23:42.893Z,42.61
2022-10-01T19:26:19.218Z,42.35
2022-10-01T19:29:04.258Z,42.26
2022-10-01T19:31:41.927Z,42.57
2022-10-01T19:34:16.265Z,42.38
2022-10-01T19:36:50.763Z,42.17
2022-10-01T19:39:24.075Z,42.02
2022-10-01T19:41:57.214Z,41.94
2022-10-01T19:44:32.835Z,42.42
2022-10-01T19:47:23.529Z,42.11
2022-10-01T19:49:56.578Z,42.50
2022-10-01T19:52:26.498Z,41.94
2022-10-01T19:54:59.307Z,42.27
2022-10-01T19:57:28.994Z,42.13
2022-10-01T19:59:59.610Z,41.89
2022-10-01T20:02:35.807Z,41.83
2022-10-01T20:05:06.990Z,41.85
2022-10-01T20:07:46.019Z,41.96
2022-10-01T20:10:22.089Z,41.55
2022-10-01T20:13:02.533Z,41.94
2022-10-01T20:15:41.986Z,42.34
2022-10-01T20:18:24.498Z,43.02
2022-10-01T20:21:07.248Z,43.76
2022-10-01T20:23:42.620Z,44.91
2022-10-01T20:26:21.594Z,46.39
2022-10-01T20:29:10.399Z,46.64
2022-10-01T20:31:47.286Z,46.60
2022-10-01T20:34:24.801Z,46.60
2022-10-01T20:37:02.108Z,47.19
2022-10-01T20:39:33.417Z,47.41
2022-10-01T20:42:02.042Z,47.18
2022-10-01T20:44:34.439Z,47.44
2022-10-01T20:47:07.403Z,47.18
2022-10-01T20:49:41.371Z,46.79
2022-10-01T20:52:18.378Z,46.04
2022-10-01T20:54:51.918Z,46.34
2022-10-01T20:57:29.050Z,45.94
2022-10-01T21:00:02.768Z,46.15
2022-10-01T21:02:35.810Z,45.77
2022-10-01T21:05:08.668Z,45.67
2022-10-01T21:07:43.318Z,45.37
2022-10-01T21:10:22.150Z,45.17
2022-10-01T21:12:59.473Z,45.06
2022-10-01T21:15:37.094Z,44.75
2022-10-01T21:18:12.806Z,44.68
2022-10-01T21:20:52.140Z,44.74
2022-10-01T21:23:32.501Z,44.33
2022-10-01T21:26:11.985Z,44.52
2022-10-01T21:29:00.758Z,44.72
2022-10-01T21:31:41.615Z,44.40
2022-10-01T21:34:14.437Z,44.16
2022-10-01T21:36:57.826Z,44.61
2022-10-01T21:39:32.965Z,44.91
2022-10-01T21:42:15.029Z,44.73
2022-10-01T21:45:16.669Z,44.59
2022-10-01T21:48:00.646Z,44.42
2022-10-01T21:50:42.655Z,44.54
2022-10-01T21:53:40.545Z,44.08
2022-10-01T21:56:20.845Z,44.12
2022-10-01T21:59:01.420Z,44.48
2022-10-01T22:01:46.310Z,44.43
2022-10-01T22:04:20.146Z,44.26
2022-10-01T22:06:54.306Z,44.38
2022-10-01T22:09:35.697Z,44.40
2022-10-01T22:12:07.115Z,44.61
2022-10-01T22:14:35.148Z,44.21
2022-10-01T22:17:09.632Z,44.38
2022-10-01T22:19:40.201Z,44.18
2022-10-01T22:22:12.289Z,44.50
2022-10-01T22:24:47.429Z,44.46
2022-10-01T22:27:21.230Z,44.89
2022-10-01T22:29:54.011Z,44.89
2022-10-01T22:32:26.761Z,44.97
2022-10-01T22:35:00.253Z,44.93
2022-10-01T22:37:34.618Z,45.07
2022-10-01T22:40:10.057Z,45.01
2022-10-01T22:42:43.904Z,46.03
2022-10-01T22:45:15.424Z,46.80
2022-10-01T22:48:04.752Z,46.82
2022-10-01T22:50:51.053Z,46.88
2022-10-01T22:53:35.786Z,46.69
2022-10-01T22:56:05.093Z,46.84
2022-10-01T22:59:00.814Z,46.47
2022-10-01T23:01:41.267Z,46.26
2022-10-01T23:04:21.170Z,45.72
2022-10-01T23:06:56.740Z,45.79
2022-10-01T23:09:35.800Z,45.26
2022-10-01T23:12:12.181Z,45.05
2022-10-01T23:15:02.053Z,44.80
2022-10-01T23:17:36.344Z,44.81
2022-10-01T23:20:28.769Z,44.54
2022-10-01T23:23:25.588Z,44.49
2022-10-01T23:26:14.523Z,44.31
2022-10-01T23:29:00.819Z,44.29
2022-10-01T23:31:36.645Z,44.33
2022-10-01T23:34:25.707Z,44.10
2022-10-01T23:37:03.194Z,44.22
2022-10-01T23:39:51.121Z,43.69
2022-10-01T23:42:31.421Z,44.10
2022-10-01T23:45:20.011Z,43.74
2022-10-01T23:47:56.257Z,43.94
2022-10-01T23:50:31.906Z,43.50
2022-10-01T23:53:08.598Z,43.41
2022-10-01T23:56:04.083Z,43.36
2022-10-01T23:58:40.226Z,43.40
